sensor_id;sensor_type;location;lat;lon;timestamp;temperature;humidity
22674;DHT22;11504;43.334;21.918;2023-02-26T00:01:13;16.4;100.0
22674;DHT22;11504;43.334;21.918;2023-02-26T00:05:59;16.4;100.0
22674;DHT22;11504;43.334;21.918;2023-02-26T00:10:36;16.4;100.0
22674;DHT22;11504;43.334;21.918;2023-02-26T00:15:14;16.3;100.0
22674;DHT22;11504;43.334;21.918;2023-02-26T00:19:56;16.3;100.0
22674;DHT22;11504;43.334;21.918;2023-02-26T00:24:35;16.2;100.0
22674;DHT22;11504;43.334;21.918;2023-02-26T00:29:13;16.2;100.0
22674;DHT22;11504;43.334;21.918;2023-02-26T00:33:54;16.2;100.0
22674;DHT22;11504;43.334;21.918;2023-02-26T00:38:36;16.2;100.0
22674;DHT22;11504;43.334;21.918;2023-02-26T00:43:40;16.2;100.0
22674;DHT22;11504;43.334;21.918;2023-02-26T00:48:39;16.3;100.0
22674;DHT22;11504;43.334;21.918;2023-02-26T00:53:54;16.4;100.0
22674;DHT22;11504;43.334;21.918;2023-02-26T00:58:54;16.4;100.0
22674;DHT22;11504;43.334;21.918;2023-02-26T01:03:32;16.4;100.0
22674;DHT22;11504;43.334;21.918;2023-02-26T01:08:18;16.4;100.0
22674;DHT22;11504;43.334;21.918;2023-02-26T01:13:09;16.4;100.0
22674;DHT22;11504;43.334;21.918;2023-02-26T01:17:55;16.5;100.0
22674;DHT22;11504;43.334;21.918;2023-02-26T01:22:54;16.5;100.0
22674;DHT22;11504;43.334;21.918;2023-02-26T01:27:41;16.5;100.0
22674;DHT22;11504;43.334;21.918;2023-02-26T01:32:27;16.5;100.0
22674;DHT22;11504;43.334;21.918;2023-02-26T01:37:30;16.5;100.0
22674;DHT22;11504;43.334;21.918;2023-02-26T01:42:35;16.5;100.0
22674;DHT22;11504;43.334;21.918;2023-02-26T01:47:42;16.5;100.0
22674;DHT22;11504;43.334;21.918;2023-02-26T01:53:20;16.5;100.0
22674;DHT22;11504;43.334;21.918;2023-02-26T01:58:02;16.5;100.0
22674;DHT22;11504;43.334;21.918;2023-02-26T02:02:40;16.5;100.0
22674;DHT22;11504;43.334;21.918;2023-02-26T02:07:18;16.6;100.0
22674;DHT22;11504;43.334;21.918;2023-02-26T02:12:13;16.6;100.0
22674;DHT22;11504;43.334;21.918;2023-02-26T02:17:43;16.6;100.0
22674;DHT22;11504;43.334;21.918;2023-02-26T02:23:10;16.6;100.0
22674;DHT22;11504;43.334;21.918;2023-02-26T02:28:28;16.6;100.0
22674;DHT22;11504;43.334;21.918;2023-02-26T02:34:40;16.7;100.0
22674;DHT22;11504;43.334;21.918;2023-02-26T02:39:42;16.7;100.0
22674;DHT22;11504;43.334;21.918;2023-02-26T02:44:40;16.6;100.0
22674;DHT22;11504;43.334;21.918;2023-02-26T02:49:43;16.6;100.0
22674;DHT22;11504;43.334;21.918;2023-02-26T02:54:39;16.6;100.0
22674;DHT22;11504;43.334;21.918;2023-02-26T02:59:42;16.6;100.0
22674;DHT22;11504;43.334;21.918;2023-02-26T03:04:33;16.6;100.0
22674;DHT22;11504;43.334;21.918;2023-02-26T03:09:12;16.6;100.0
22674;DHT22;11504;43.334;21.918;2023-02-26T03:13:51;16.6;100.0
22674;DHT22;11504;43.334;21.918;2023-02-26T03:18:51;16.6;100.0
22674;DHT22;11504;43.334;21.918;2023-02-26T03:24:07;16.6;100.0
22674;DHT22;11504;43.334;21.918;2023-02-26T03:29:29;16.6;100.0
22674;DHT22;11504;43.334;21.918;2023-02-26T03:34:40;16.6;100.0
22674;DHT22;11504;43.334;21.918;2023-02-26T03:39:40;16.6;100.0
22674;DHT22;11504;43.334;21.918;2023-02-26T03:44:35;16.6;100.0
22674;DHT22;11504;43.334;21.918;2023-02-26T03:49:31;16.6;100.0
22674;DHT22;11504;43.334;21.918;2023-02-26T03:54:26;16.5;100.0
22674;DHT22;11504;43.334;21.918;2023-02-26T03:59:14;16.5;100.0
22674;DHT22;11504;43.334;21.918;2023-02-26T04:04:01;16.5;100.0
22674;DHT22;11504;43.334;21.918;2023-02-26T04:08:47;16.5;100.0
22674;DHT22;11504;43.334;21.918;2023-02-26T04:13:24;16.5;100.0
22674;DHT22;11504;43.334;21.918;2023-02-26T04:18:01;16.5;100.0
22674;DHT22;11504;43.334;21.918;2023-02-26T04:22:38;16.5;100.0
22674;DHT22;11504;43.334;21.918;2023-02-26T04:27:15;16.4;100.0
22674;DHT22;11504;43.334;21.918;2023-02-26T04:31:52;16.4;100.0
22674;DHT22;11504;43.334;21.918;2023-02-26T04:36:29;16.3;100.0
22674;DHT22;11504;43.334;21.918;2023-02-26T04:41:06;16.3;100.0
22674;DHT22;11504;43.334;21.918;2023-02-26T04:45:44;16.3;100.0
22674;DHT22;11504;43.334;21.918;2023-02-26T04:50:24;16.3;100.0
22674;DHT22;11504;43.334;21.918;2023-02-26T04:55:02;16.3;100.0
22674;DHT22;11504;43.334;21.918;2023-02-26T04:59:43;16.3;100.0
22674;DHT22;11504;43.334;21.918;2023-02-26T05:04:19;16.2;100.0
22674;DHT22;11504;43.334;21.918;2023-02-26T05:08:55;16.2;100.0
22674;DHT22;11504;43.334;21.918;2023-02-26T05:13:32;16.2;100.0
22674;DHT22;11504;43.334;21.918;2023-02-26T05:18:09;16.2;100.0
22674;DHT22;11504;43.334;21.918;2023-02-26T05:22:46;16.2;100.0
22674;DHT22;11504;43.334;21.918;2023-02-26T05:27:23;16.2;100.0
22674;DHT22;11504;43.334;21.918;2023-02-26T05:32:00;16.2;100.0
22674;DHT22;11504;43.334;21.918;2023-02-26T05:36:39;16.2;100.0
22674;DHT22;11504;43.334;21.918;2023-02-26T05:41:15;16.2;100.0
22674;DHT22;11504;43.334;21.918;2023-02-26T05:45:52;16.2;100.0
22674;DHT22;11504;43.334;21.918;2023-02-26T05:50:30;16.2;100.0
22674;DHT22;11504;43.334;21.918;2023-02-26T05:55:08;16.2;100.0
22674;DHT22;11504;43.334;21.918;2023-02-26T05:59:46;16.2;100.0
22674;DHT22;11504;43.334;21.918;2023-02-26T06:04:23;16.4;100.0
22674;DHT22;11504;43.334;21.918;2023-02-26T06:09:00;16.4;100.0
22674;DHT22;11504;43.334;21.918;2023-02-26T06:13:39;16.4;100.0
22674;DHT22;11504;43.334;21.918;2023-02-26T06:18:16;16.5;100.0
22674;DHT22;11504;43.334;21.918;2023-02-26T06:22:53;16.5;100.0
22674;DHT22;11504;43.334;21.918;2023-02-26T06:27:29;17.4;100.0
22674;DHT22;11504;43.334;21.918;2023-02-26T06:32:06;17.4;100.0
22674;DHT22;11504;43.334;21.918;2023-02-26T06:36:43;18.3;100.0
22674;DHT22;11504;43.334;21.918;2023-02-26T06:41:20;18.3;100.0
22674;DHT22;11504;43.334;21.918;2023-02-26T06:45:57;18.8;100.0
22674;DHT22;11504;43.334;21.918;2023-02-26T06:50:35;18.8;100.0
22674;DHT22;11504;43.334;21.918;2023-02-26T06:55:11;19.4;100.0
22674;DHT22;11504;43.334;21.918;2023-02-26T06:59:49;19.4;100.0
22674;DHT22;11504;43.334;21.918;2023-02-26T07:04:25;20.0;100.0
22674;DHT22;11504;43.334;21.918;2023-02-26T07:09:02;20.0;100.0
22674;DHT22;11504;43.334;21.918;2023-02-26T07:13:39;20.0;100.0
22674;DHT22;11504;43.334;21.918;2023-02-26T07:18:16;20.5;100.0
22674;DHT22;11504;43.334;21.918;2023-02-26T07:22:53;20.5;100.0
22674;DHT22;11504;43.334;21.918;2023-02-26T07:27:32;19.9;100.0
22674;DHT22;11504;43.334;21.918;2023-02-26T07:32:10;19.9;100.0
22674;DHT22;11504;43.334;21.918;2023-02-26T07:36:47;19.3;100.0
22674;DHT22;11504;43.334;21.918;2023-02-26T07:41:24;19.3;100.0
22674;DHT22;11504;43.334;21.918;2023-02-26T07:46:01;18.9;100.0
22674;DHT22;11504;43.334;21.918;2023-02-26T07:50:40;18.9;100.0
22674;DHT22;11504;43.334;21.918;2023-02-26T07:55:16;18.5;100.0
22674;DHT22;11504;43.334;21.918;2023-02-26T07:59:55;18.5;100.0
22674;DHT22;11504;43.334;21.918;2023-02-26T08:04:31;18.3;100.0
22674;DHT22;11504;43.334;21.918;2023-02-26T08:09:08;18.3;100.0
22674;DHT22;11504;43.334;21.918;2023-02-26T08:13:45;18.3;100.0
22674;DHT22;11504;43.334;21.918;2023-02-26T08:18:22;18.1;100.0
22674;DHT22;11504;43.334;21.918;2023-02-26T08:22:59;18.1;100.0
22674;DHT22;11504;43.334;21.918;2023-02-26T08:27:36;17.9;100.0
22674;DHT22;11504;43.334;21.918;2023-02-26T08:32:14;17.9;100.0
22674;DHT22;11504;43.334;21.918;2023-02-26T08:36:54;17.7;100.0
22674;DHT22;11504;43.334;21.918;2023-02-26T08:41:31;17.7;100.0
22674;DHT22;11504;43.334;21.918;2023-02-26T08:46:09;17.6;100.0
22674;DHT22;11504;43.334;21.918;2023-02-26T08:50:46;17.6;100.0
22674;DHT22;11504;43.334;21.918;2023-02-26T08:55:24;17.5;100.0
22674;DHT22;11504;43.334;21.918;2023-02-26T09:00:02;17.5;100.0
22674;DHT22;11504;43.334;21.918;2023-02-26T09:04:45;17.6;100.0
22674;DHT22;11504;43.334;21.918;2023-02-26T09:09:22;17.6;100.0
22674;DHT22;11504;43.334;21.918;2023-02-26T09:13:59;17.6;100.0
22674;DHT22;11504;43.334;21.918;2023-02-26T09:18:35;17.8;100.0
22674;DHT22;11504;43.334;21.918;2023-02-26T09:23:12;17.8;100.0
22674;DHT22;11504;43.334;21.918;2023-02-26T09:27:48;17.2;100.0
22674;DHT22;11504;43.334;21.918;2023-02-26T09:32:25;17.2;100.0
22674;DHT22;11504;43.334;21.918;2023-02-26T09:37:02;16.5;100.0
22674;DHT22;11504;43.334;21.918;2023-02-26T09:41:48;16.5;100.0
22674;DHT22;11504;43.334;21.918;2023-02-26T09:46:53;15.3;100.0
22674;DHT22;11504;43.334;21.918;2023-02-26T09:52:10;15.3;100.0
22674;DHT22;11504;43.334;21.918;2023-02-26T09:57:13;14.1;100.0
22674;DHT22;11504;43.334;21.918;2023-02-26T10:02:16;14.1;100.0
22674;DHT22;11504;43.334;21.918;2023-02-26T10:07:33;14.4;100.0
22674;DHT22;11504;43.334;21.918;2023-02-26T10:12:39;14.4;100.0
22674;DHT22;11504;43.334;21.918;2023-02-26T10:17:30;14.6;100.0
22674;DHT22;11504;43.334;21.918;2023-02-26T10:22:35;14.6;100.0
22674;DHT22;11504;43.334;21.918;2023-02-26T10:27:41;14.2;100.0
22674;DHT22;11504;43.334;21.918;2023-02-26T10:32:42;14.2;100.0
22674;DHT22;11504;43.334;21.918;2023-02-26T10:37:48;13.7;100.0
22674;DHT22;11504;43.334;21.918;2023-02-26T10:42:40;13.7;100.0
22674;DHT22;11504;43.334;21.918;2023-02-26T10:47:37;13.2;100.0
22674;DHT22;11504;43.334;21.918;2023-02-26T10:52:44;13.2;100.0
22674;DHT22;11504;43.334;21.918;2023-02-26T10:57:30;12.8;100.0
22674;DHT22;11504;43.334;21.918;2023-02-26T11:02:31;12.8;100.0
22674;DHT22;11504;43.334;21.918;2023-02-26T11:07:14;12.8;100.0
22674;DHT22;11504;43.334;21.918;2023-02-26T11:11:54;12.8;100.0
22674;DHT22;11504;43.334;21.918;2023-02-26T11:16:55;12.8;100.0
22674;DHT22;11504;43.334;21.918;2023-02-26T11:21:54;12.8;100.0
22674;DHT22;11504;43.334;21.918;2023-02-26T11:26:42;13.0;100.0
22674;DHT22;11504;43.334;21.918;2023-02-26T11:31:33;13.0;100.0
22674;DHT22;11504;43.334;21.918;2023-02-26T11:36:14;13.1;100.0
22674;DHT22;11504;43.334;21.918;2023-02-26T11:41:11;13.1;100.0
22674;DHT22;11504;43.334;21.918;2023-02-26T11:45:54;12.8;100.0
22674;DHT22;11504;43.334;21.918;2023-02-26T11:50:43;12.8;100.0
22674;DHT22;11504;43.334;21.918;2023-02-26T11:55:38;12.4;100.0
22674;DHT22;11504;43.334;21.918;2023-02-26T12:00:36;12.4;100.0
22674;DHT22;11504;43.334;21.918;2023-02-26T12:05:16;12.0;100.0
22674;DHT22;11504;43.334;21.918;2023-02-26T12:09:53;12.0;100.0
22674;DHT22;11504;43.334;21.918;2023-02-26T12:14:41;11.7;100.0
22674;DHT22;11504;43.334;21.918;2023-02-26T12:20:15;11.7;100.0
22674;DHT22;11504;43.334;21.918;2023-02-26T12:25:41;11.6;100.0
22674;DHT22;11504;43.334;21.918;2023-02-26T12:31:19;11.6;100.0
22674;DHT22;11504;43.334;21.918;2023-02-26T12:37:04;11.5;100.0
22674;DHT22;11504;43.334;21.918;2023-02-26T12:42:50;11.5;100.0
22674;DHT22;11504;43.334;21.918;2023-02-26T12:48:09;11.4;100.0
22674;DHT22;11504;43.334;21.918;2023-02-26T12:54:11;11.4;100.0
22674;DHT22;11504;43.334;21.918;2023-02-26T13:00:02;11.3;100.0
22674;DHT22;11504;43.334;21.918;2023-02-26T13:05:54;10.9;100.0
22674;DHT22;11504;43.334;21.918;2023-02-26T13:11:41;10.9;100.0
22674;DHT22;11504;43.334;21.918;2023-02-26T13:17:02;10.4;100.0
22674;DHT22;11504;43.334;21.918;2023-02-26T13:22:11;10.4;100.0
22674;DHT22;11504;43.334;21.918;2023-02-26T13:27:05;10.2;100.0
22674;DHT22;11504;43.334;21.918;2023-02-26T13:31:55;10.2;100.0
22674;DHT22;11504;43.334;21.918;2023-02-26T13:36:45;10.0;100.0
22674;DHT22;11504;43.334;21.918;2023-02-26T13:41:33;10.0;100.0
22674;DHT22;11504;43.334;21.918;2023-02-26T13:46:59;9.9;100.0
22674;DHT22;11504;43.334;21.918;2023-02-26T13:52:50;9.9;100.0
22674;DHT22;11504;43.334;21.918;2023-02-26T13:58:27;9.8;100.0
22674;DHT22;11504;43.334;21.918;2023-02-26T14:03:33;9.8;100.0
22674;DHT22;11504;43.334;21.918;2023-02-26T14:08:45;9.8;100.0
22674;DHT22;11504;43.334;21.918;2023-02-26T14:13:38;9.8;100.0
22674;DHT22;11504;43.334;21.918;2023-02-26T14:18:26;9.8;100.0
22674;DHT22;11504;43.334;21.918;2023-02-26T14:23:34;9.8;100.0
22674;DHT22;11504;43.334;21.918;2023-02-26T14:28:34;9.6;100.0
22674;DHT22;11504;43.334;21.918;2023-02-26T14:33:59;9.6;100.0
22674;DHT22;11504;43.334;21.918;2023-02-26T14:39:00;9.5;100.0
22674;DHT22;11504;43.334;21.918;2023-02-26T14:44:11;9.5;100.0
22674;DHT22;11504;43.334;21.918;2023-02-26T14:49:03;9.2;100.0
22674;DHT22;11504;43.334;21.918;2023-02-26T14:54:13;9.2;100.0
22674;DHT22;11504;43.334;21.918;2023-02-26T14:59:53;9.0;100.0
22674;DHT22;11504;43.334;21.918;2023-02-26T15:05:31;8.8;100.0
22674;DHT22;11504;43.334;21.918;2023-02-26T15:11:18;8.8;100.0
22674;DHT22;11504;43.334;21.918;2023-02-26T15:17:00;8.5;100.0
22674;DHT22;11504;43.334;21.918;2023-02-26T15:22:45;8.5;100.0
22674;DHT22;11504;43.334;21.918;2023-02-26T15:28:19;8.4;100.0
22674;DHT22;11504;43.334;21.918;2023-02-26T15:33:12;8.4;100.0
22674;DHT22;11504;43.334;21.918;2023-02-26T15:37:59;8.4;100.0
22674;DHT22;11504;43.334;21.918;2023-02-26T15:42:40;8.4;100.0
22674;DHT22;11504;43.334;21.918;2023-02-26T15:47:32;8.2;100.0
22674;DHT22;11504;43.334;21.918;2023-02-26T15:52:12;8.2;100.0
22674;DHT22;11504;43.334;21.918;2023-02-26T15:57:01;8.1;100.0
22674;DHT22;11504;43.334;21.918;2023-02-26T16:01:40;8.1;100.0
22674;DHT22;11504;43.334;21.918;2023-02-26T16:06:18;7.8;100.0
22674;DHT22;11504;43.334;21.918;2023-02-26T16:11:07;7.8;100.0
22674;DHT22;11504;43.334;21.918;2023-02-26T16:15:50;7.6;100.0
22674;DHT22;11504;43.334;21.918;2023-02-26T16:20:32;7.6;100.0
22674;DHT22;11504;43.334;21.918;2023-02-26T16:25:29;7.5;100.0
22674;DHT22;11504;43.334;21.918;2023-02-26T16:30:31;7.5;100.0
22674;DHT22;11504;43.334;21.918;2023-02-26T16:35:28;7.4;100.0
22674;DHT22;11504;43.334;21.918;2023-02-26T16:40:26;7.4;100.0
22674;DHT22;11504;43.334;21.918;2023-02-26T16:45:24;7.4;100.0
22674;DHT22;11504;43.334;21.918;2023-02-26T16:50:35;7.4;100.0
22674;DHT22;11504;43.334;21.918;2023-02-26T16:55:14;7.3;100.0
22674;DHT22;11504;43.334;21.918;2023-02-26T16:59:53;7.3;100.0
22674;DHT22;11504;43.334;21.918;2023-02-26T17:04:56;7.3;100.0
22674;DHT22;11504;43.334;21.918;2023-02-26T17:09:59;7.3;100.0
22674;DHT22;11504;43.334;21.918;2023-02-26T17:15:11;7.3;100.0
22674;DHT22;11504;43.334;21.918;2023-02-26T17:20:07;7.3;100.0
22674;DHT22;11504;43.334;21.918;2023-02-26T17:24:48;7.2;100.0
22674;DHT22;11504;43.334;21.918;2023-02-26T17:29:29;7.2;100.0
22674;DHT22;11504;43.334;21.918;2023-02-26T17:34:15;7.2;100.0
22674;DHT22;11504;43.334;21.918;2023-02-26T17:38:56;7.2;100.0
22674;DHT22;11504;43.334;21.918;2023-02-26T17:43:32;7.2;100.0
22674;DHT22;11504;43.334;21.918;2023-02-26T17:48:10;7.2;100.0
22674;DHT22;11504;43.334;21.918;2023-02-26T17:52:52;7.2;100.0
22674;DHT22;11504;43.334;21.918;2023-02-26T17:57:28;7.3;100.0
22674;DHT22;11504;43.334;21.918;2023-02-26T18:02:14;7.3;100.0
22674;DHT22;11504;43.334;21.918;2023-02-26T18:06:59;7.2;100.0
22674;DHT22;11504;43.334;21.918;2023-02-26T18:11:36;7.2;100.0
22674;DHT22;11504;43.334;21.918;2023-02-26T18:16:18;7.2;100.0
22674;DHT22;11504;43.334;21.918;2023-02-26T18:21:10;7.2;100.0
22674;DHT22;11504;43.334;21.918;2023-02-26T18:25:50;7.2;100.0
22674;DHT22;11504;43.334;21.918;2023-02-26T18:30:31;7.2;100.0
22674;DHT22;11504;43.334;21.918;2023-02-26T18:35:10;7.3;100.0
22674;DHT22;11504;43.334;21.918;2023-02-26T18:39:47;7.3;100.0
22674;DHT22;11504;43.334;21.918;2023-02-26T18:44:24;7.3;100.0
22674;DHT22;11504;43.334;21.918;2023-02-26T18:49:00;7.4;100.0
22674;DHT22;11504;43.334;21.918;2023-02-26T18:53:37;7.4;100.0
22674;DHT22;11504;43.334;21.918;2023-02-26T18:58:14;7.4;100.0
22674;DHT22;11504;43.334;21.918;2023-02-26T19:02:50;7.4;100.0
22674;DHT22;11504;43.334;21.918;2023-02-26T19:07:26;7.4;100.0
22674;DHT22;11504;43.334;21.918;2023-02-26T19:12:03;7.4;100.0
22674;DHT22;11504;43.334;21.918;2023-02-26T19:16:42;7.4;100.0
22674;DHT22;11504;43.334;21.918;2023-02-26T19:21:19;7.4;100.0
22674;DHT22;11504;43.334;21.918;2023-02-26T19:25:55;7.4;100.0
22674;DHT22;11504;43.334;21.918;2023-02-26T19:30:32;7.4;100.0
22674;DHT22;11504;43.334;21.918;2023-02-26T19:35:09;7.3;100.0
22674;DHT22;11504;43.334;21.918;2023-02-26T19:39:45;7.3;100.0
22674;DHT22;11504;43.334;21.918;2023-02-26T19:44:24;7.3;100.0
22674;DHT22;11504;43.334;21.918;2023-02-26T19:49:02;7.4;100.0
22674;DHT22;11504;43.334;21.918;2023-02-26T19:53:38;7.4;100.0
22674;DHT22;11504;43.334;21.918;2023-02-26T19:58:16;7.4;100.0
22674;DHT22;11504;43.334;21.918;2023-02-26T20:02:52;7.4;100.0
22674;DHT22;11504;43.334;21.918;2023-02-26T20:07:29;7.4;100.0
22674;DHT22;11504;43.334;21.918;2023-02-26T20:12:07;7.4;100.0
22674;DHT22;11504;43.334;21.918;2023-02-26T20:16:43;7.3;100.0
22674;DHT22;11504;43.334;21.918;2023-02-26T20:21:20;7.3;100.0
22674;DHT22;11504;43.334;21.918;2023-02-26T20:25:56;7.2;100.0
22674;DHT22;11504;43.334;21.918;2023-02-26T20:30:33;7.2;100.0
22674;DHT22;11504;43.334;21.918;2023-02-26T20:35:10;7.2;100.0
22674;DHT22;11504;43.334;21.918;2023-02-26T20:39:48;7.2;100.0
22674;DHT22;11504;43.334;21.918;2023-02-26T20:44:25;7.2;100.0
22674;DHT22;11504;43.334;21.918;2023-02-26T20:49:01;7.2;100.0
22674;DHT22;11504;43.334;21.918;2023-02-26T20:53:38;7.2;100.0
22674;DHT22;11504;43.334;21.918;2023-02-26T20:58:15;7.2;100.0
22674;DHT22;11504;43.334;21.918;2023-02-26T21:02:52;7.2;100.0
22674;DHT22;11504;43.334;21.918;2023-02-26T21:07:29;7.2;100.0
22674;DHT22;11504;43.334;21.918;2023-02-26T21:12:06;7.2;100.0
22674;DHT22;11504;43.334;21.918;2023-02-26T21:16:42;7.3;100.0
22674;DHT22;11504;43.334;21.918;2023-02-26T21:21:18;7.3;100.0
22674;DHT22;11504;43.334;21.918;2023-02-26T21:25:56;7.2;100.0
22674;DHT22;11504;43.334;21.918;2023-02-26T21:30:32;7.2;100.0
22674;DHT22;11504;43.334;21.918;2023-02-26T21:35:10;7.2;100.0
22674;DHT22;11504;43.334;21.918;2023-02-26T21:39:47;7.2;100.0
22674;DHT22;11504;43.334;21.918;2023-02-26T21:44:24;7.2;100.0
22674;DHT22;11504;43.334;21.918;2023-02-26T21:49:02;7.2;100.0
22674;DHT22;11504;43.334;21.918;2023-02-26T21:53:39;7.2;100.0
22674;DHT22;11504;43.334;21.918;2023-02-26T21:58:16;7.2;100.0
22674;DHT22;11504;43.334;21.918;2023-02-26T22:02:53;7.2;100.0
22674;DHT22;11504;43.334;21.918;2023-02-26T22:07:30;7.1;100.0
22674;DHT22;11504;43.334;21.918;2023-02-26T22:12:07;7.1;100.0
22674;DHT22;11504;43.334;21.918;2023-02-26T22:16:44;7.0;100.0
22674;DHT22;11504;43.334;21.918;2023-02-26T22:21:21;7.0;100.0
22674;DHT22;11504;43.334;21.918;2023-02-26T22:25:57;6.8;100.0
22674;DHT22;11504;43.334;21.918;2023-02-26T22:30:34;6.8;100.0
22674;DHT22;11504;43.334;21.918;2023-02-26T22:35:11;6.7;100.0
22674;DHT22;11504;43.334;21.918;2023-02-26T22:39:47;6.7;100.0
22674;DHT22;11504;43.334;21.918;2023-02-26T22:44:24;6.7;100.0
22674;DHT22;11504;43.334;21.918;2023-02-26T22:49:01;6.6;100.0
22674;DHT22;11504;43.334;21.918;2023-02-26T22:53:37;6.6;100.0
22674;DHT22;11504;43.334;21.918;2023-02-26T22:58:13;6.5;100.0
22674;DHT22;11504;43.334;21.918;2023-02-26T23:02:50;6.5;100.0
22674;DHT22;11504;43.334;21.918;2023-02-26T23:07:26;6.4;100.0
22674;DHT22;11504;43.334;21.918;2023-02-26T23:12:03;6.4;100.0
22674;DHT22;11504;43.334;21.918;2023-02-26T23:16:40;6.4;100.0
22674;DHT22;11504;43.334;21.918;2023-02-26T23:21:17;6.4;100.0
22674;DHT22;11504;43.334;21.918;2023-02-26T23:25:54;6.4;100.0
22674;DHT22;11504;43.334;21.918;2023-02-26T23:30:31;6.4;100.0
22674;DHT22;11504;43.334;21.918;2023-02-26T23:35:08;6.4;100.0
22674;DHT22;11504;43.334;21.918;2023-02-26T23:39:45;6.4;100.0
22674;DHT22;11504;43.334;21.918;2023-02-26T23:44:22;6.4;100.0
22674;DHT22;11504;43.334;21.918;2023-02-26T23:49:01;6.4;100.0
22674;DHT22;11504;43.334;21.918;2023-02-26T23:53:38;6.4;100.0
22674;DHT22;11504;43.334;21.918;2023-02-26T23:58:14;6.5;100.0
